Time;durP1;ratioP1;P1;durP2;ratioP2;P2;SDS_P1;SDS_P2;PMS_P1;PMS_P2;Temp;Humidity;BMP_temperature;BMP_pressure;BME280_temperature;BME280_humidity;BME280_pressure;Samples;Min_cycle;Max_cycle;Signal;HPM_P1;HPM_P2
2022/05/20 00:01:10;;;;;;;;;2.00;2.00;;;;;22.71;44.33;101574.31;5037793;28;45343;-83
2022/05/20 00:03:37;;;;;;;;;3.33;2.00;;;;;22.70;43.94;101561.88;5045046;28;45791;-78
2022/05/20 00:06:03;;;;;;;;;3.00;3.00;;;;;22.44;44.20;101526.28;5038736;28;45494;-80
2022/05/20 00:08:29;;;;;;;;;3.00;3.00;;;;;22.62;44.42;101555.97;5038761;28;45418;-81
2022/05/20 00:10:55;;;;;;;;;3.00;3.00;;;;;22.66;44.42;101557.59;5035517;28;45410;-82
2022/05/20 00:13:23;;;;;;;;;4.00;2.00;;;;;22.65;44.04;101564.72;5042347;28;45512;-80
2022/05/20 00:15:49;;;;;;;;;3.33;3.00;;;;;21.81;44.20;101411.06;5044035;28;46226;-83
2022/05/20 00:18:15;;;;;;;;;2.00;1.00;;;;;22.48;44.11;101512.84;5042775;28;45494;-81
2022/05/20 00:20:41;;;;;;;;;2.00;2.00;;;;;22.13;43.80;101457.06;5029564;28;45551;-77
2022/05/20 00:23:07;;;;;;;;;1.00;1.00;;;;;22.11;43.68;101442.06;5058933;28;45335;-77
2022/05/20 00:25:48;;;;;;;;;2.00;2.00;;;;;21.98;43.20;101421.13;5058409;28;46257;-75
2022/05/20 00:28:22;;;;;;;;;3.00;2.00;;;;;22.58;43.43;101523.13;5058428;28;45456;-78
2022/05/20 00:34:22;;;;;;;;;3.33;2.00;;;;;22.11;43.09;101450.06;5057705;28;45259;-77
2022/05/20 00:46:34;;;;;;;;;2.00;2.00;;;;;22.69;42.38;101537.94;5013953;28;45514;-80
2022/05/20 00:49:13;;;;;;;;;1.67;1.00;;;;;22.73;41.69;101550.22;5014939;28;45798;-79
2022/05/20 00:55:05;;;;;;;;;3.00;1.00;;;;;22.64;42.19;101530.06;5071112;28;45467;-78
2022/05/20 00:57:36;;;;;;;;;2.00;1.33;;;;;22.16;42.14;101448.09;5057078;28;45313;-77
2022/05/20 01:00:07;;;;;;;;;1.00;1.00;;;;;22.02;42.49;101428.13;5071669;28;47190;-83
2022/05/20 01:02:35;;;;;;;;;3.00;2.00;;;;;22.37;42.43;101491.88;5062510;28;45762;-76
2022/05/20 01:19:20;;;;;;;;;1.00;1.00;;;;;23.15;41.96;101501.50;5060577;28;45416;-82
2022/05/20 01:21:46;;;;;;;;;1.00;1.00;;;;;23.02;41.45;101453.91;5059855;28;45475;-82
2022/05/20 01:41:04;;;;;;;;;5.00;2.00;;;;;23.04;40.91;101473.41;5068961;28;45792;-85
2022/05/20 02:53:34;;;;;;;;;2.00;2.00;;;;;21.83;43.18;101245.69;5045953;28;44951;-81
2022/05/20 03:06:09;;;;;;;;;2.00;2.00;;;;;22.77;43.23;101408.50;5040504;28;45303;-80
2022/05/20 03:08:36;;;;;;;;;4.00;3.00;;;;;22.70;43.03;101412.34;5042433;28;45437;-79
2022/05/20 03:11:01;;;;;;;;;4.00;4.00;;;;;22.16;43.36;101328.94;5037609;28;45541;-76
2022/05/20 03:13:27;;;;;;;;;2.00;2.00;;;;;22.13;43.55;101330.81;5037841;28;45397;-77
2022/05/20 03:15:53;;;;;;;;;3.00;3.00;;;;;22.48;43.72;101393.59;5037178;28;45504;-80
2022/05/20 03:18:19;;;;;;;;;3.00;3.00;;;;;22.65;43.55;101415.19;5038977;28;45529;-77
2022/05/20 03:47:39;;;;;;;;;2.33;2.00;;;;;22.42;44.65;101391.16;5058726;28;45397;-76
2022/05/20 03:50:06;;;;;;;;;2.00;2.00;;;;;22.18;44.50;101350.19;5058319;28;45538;-77
2022/05/20 04:12:43;;;;;;;;;4.00;2.00;;;;;21.60;45.71;101303.38;5069045;28;45390;-80
2022/05/20 04:28:36;;;;;;;;;4.67;3.00;;;;;21.96;45.64;101374.13;5061549;28;45471;-80
2022/05/20 05:10:45;;;;;;;;;4.00;3.00;;;;;21.64;46.52;101345.91;5058083;28;45445;-81
2022/05/20 05:33:22;;;;;;;;;4.00;4.00;;;;;21.78;46.79;101332.94;5058292;28;45279;-83
2022/05/20 05:42:41;;;;;;;;;5.00;4.00;;;;;21.86;47.77;101389.56;5061778;28;45360;-81
2022/05/20 05:45:07;;;;;;;;;6.67;4.33;;;;;21.64;47.89;101367.22;5061072;28;45495;-81
2022/05/20 05:47:33;;;;;;;;;5.00;5.00;;;;;21.40;48.09;101321.81;5063972;28;45487;-84
2022/05/20 05:53:21;;;;;;;;;3.00;3.00;;;;;21.53;48.01;101307.16;5068324;28;45353;-83
2022/05/20 05:55:53;;;;;;;;;4.33;4.00;;;;;21.67;47.92;101324.50;5067626;28;45269;-85
2022/05/20 05:58:19;;;;;;;;;5.00;5.00;;;;;21.60;48.65;101353.16;5069932;28;45487;-86
2022/05/20 06:00:45;;;;;;;;;7.00;4.67;;;;;21.54;49.00;101356.88;5074478;28;45216;-85
2022/05/20 06:07:23;;;;;;;;;5.00;3.67;;;;;21.48;49.89;101393.53;5064531;28;45380;-84
2022/05/20 06:16:54;;;;;;;;;8.33;6.00;;;;;21.29;51.37;101411.88;5069931;28;45543;-81
2022/05/20 06:19:20;;;;;;;;;5.00;5.00;;;;;20.97;51.73;101363.16;5073258;28;44776;-84
2022/05/20 06:58:45;;;;;;;;;8.67;8.00;;;;;20.30;57.73;101103.53;5064172;28;45333;-81
2022/05/20 07:01:16;;;;;;;;;8.33;8.00;;;;;20.58;57.24;101117.75;5060416;28;45382;-82
2022/05/20 07:03:43;;;;;;;;;8.00;8.00;;;;;20.97;57.17;101155.44;5059281;28;45533;-85
2022/05/20 07:12:51;;;;;;;;;8.00;6.00;;;;;20.49;57.73;101047.06;5059640;28;45451;-78
2022/05/20 07:15:18;;;;;;;;;9.00;7.00;;;;;20.34;57.72;101016.53;5059421;28;45473;-78
2022/05/20 07:21:09;;;;;;;;;8.33;8.00;;;;;20.65;58.49;101120.16;5063800;28;45453;-78
2022/05/20 07:23:34;;;;;;;;;7.67;6.00;;;;;20.23;58.96;101062.09;5096753;27;45302;-81
2022/05/20 07:26:02;;;;;;;;;6.00;6.00;;;;;20.60;58.77;101131.88;5079758;28;45433;-76
2022/05/20 07:28:29;;;;;;;;;7.67;7.33;;;;;19.73;58.95;101002.59;5079367;27;45456;-77
2022/05/20 07:30:55;;;;;;;;;7.67;6.00;;;;;20.13;58.74;101053.53;5079003;27;45554;-78
2022/05/20 07:33:22;;;;;;;;;8.33;5.33;;;;;20.70;58.73;101107.56;5079880;27;45435;-79
2022/05/20 07:35:48;;;;;;;;;7.33;6.00;;;;;20.83;59.72;101128.44;5079861;27;45480;-79
2022/05/20 07:38:13;;;;;;;;;9.67;9.33;;;;;21.08;59.07;101161.28;5080365;28;46039;-77
2022/05/20 07:40:39;;;;;;;;;13.33;11.00;;;;;20.40;59.19;101061.53;5079862;27;45455;-76
2022/05/20 07:43:05;;;;;;;;;10.33;10.33;;;;;20.85;59.14;101150.53;5080045;27;45415;-78
2022/05/20 07:45:31;;;;;;;;;9.33;9.00;;;;;21.06;58.88;101199.53;5079767;27;45309;-78
2022/05/20 07:47:57;;;;;;;;;9.00;9.00;;;;;20.71;59.31;101183.81;5079591;27;45320;-78
2022/05/20 07:50:23;;;;;;;;;6.00;6.00;;;;;20.09;59.34;101061.66;5078489;27;45484;-78
2022/05/20 07:55:41;;;;;;;;;7.00;6.33;;;;;21.10;59.66;101265.97;5079209;27;45562;-77
2022/05/20 07:58:13;;;;;;;;;6.67;5.00;;;;;21.39;59.34;101318.28;5079404;27;45755;-78
2022/05/20 08:00:39;;;;;;;;;6.33;6.33;;;;;21.18;58.81;101201.78;5079075;27;45384;-77
2022/05/20 08:03:07;;;;;;;;;6.00;6.00;;;;;21.60;59.14;101239.38;5079504;27;45777;-77
2022/05/20 08:05:44;;;;;;;;;6.00;6.00;;;;;21.73;59.70;101236.28;5080686;27;45499;-79
2022/05/20 08:08:12;;;;;;;;;6.67;6.00;;;;;21.09;58.61;101111.53;5079104;27;46187;-76
2022/05/20 08:10:39;;;;;;;;;9.00;7.67;;;;;21.94;58.95;101232.81;5079892;27;45463;-77
2022/05/20 08:13:05;;;;;;;;;12.67;8.00;;;;;21.95;59.57;101231.91;5079310;27;45335;-78
2022/05/20 08:15:31;;;;;;;;;9.00;9.00;;;;;21.15;59.47;101085.56;5077765;27;45431;-79
2022/05/20 08:17:58;;;;;;;;;8.00;8.00;;;;;21.89;60.76;101221.44;5079420;27;46075;-78
2022/05/20 08:20:28;;;;;;;;;8.67;7.33;;;;;21.97;60.13;101219.38;5080471;27;45532;-78
2022/05/20 08:22:54;;;;;;;;;7.33;7.33;;;;;22.07;59.09;101222.56;5079806;27;45458;-77
2022/05/20 08:25:21;;;;;;;;;7.33;7.33;;;;;22.17;58.78;101212.41;5078629;28;45345;-78
2022/05/20 08:27:48;;;;;;;;;10.33;10.00;;;;;22.10;60.68;101193.09;5080479;27;45340;-79
2022/05/20 08:30:18;;;;;;;;;8.33;8.33;;;;;22.16;60.53;101202.66;5080129;28;45416;-76
2022/05/20 08:32:44;;;;;;;;;9.00;7.33;;;;;22.22;59.78;101221.13;5082509;27;46090;-78
2022/05/20 08:35:10;;;;;;;;;9.00;9.00;;;;;21.59;59.56;101082.19;5082811;27;45276;-76
2022/05/20 08:37:40;;;;;;;;;10.33;10.33;;;;;22.17;60.14;101185.72;5098459;27;46790;-77
2022/05/20 08:40:20;;;;;;;;;12.00;10.00;;;;;22.34;59.50;101236.66;5079211;27;45557;-76
2022/05/20 08:42:48;;;;;;;;;9.00;9.00;;;;;21.91;59.89;101218.75;5079698;27;45772;-78
2022/05/20 08:45:18;;;;;;;;;11.00;7.00;;;;;21.39;59.88;101158.41;5080510;27;46287;-76
2022/05/20 08:47:48;;;;;;;;;9.67;8.00;;;;;22.40;58.71;101340.50;5080203;27;45957;-78
2022/05/20 08:50:20;;;;;;;;;9.00;8.00;;;;;22.12;57.95;101315.75;5081805;27;45557;-76
2022/05/20 08:52:49;;;;;;;;;8.00;8.00;;;;;22.50;57.83;101353.53;5084564;28;45238;-78
2022/05/20 08:55:15;;;;;;;;;10.67;9.00;;;;;22.02;58.09;101150.72;5086813;28;45503;-76
2022/05/20 08:57:48;;;;;;;;;9.00;8.67;;;;;22.61;57.13;101197.34;5087424;27;45599;-79
2022/05/20 09:00:16;;;;;;;;;8.33;6.67;;;;;22.99;57.66;101239.41;5083148;28;45307;-78
2022/05/20 09:02:42;;;;;;;;;9.00;9.00;;;;;23.14;58.51;101238.78;5081103;27;45479;-78
2022/05/20 09:05:31;;;;;;;;;9.67;8.67;;;;;23.27;57.33;101250.66;5081915;27;45404;-79
2022/05/20 09:08:07;;;;;;;;;10.33;9.00;;;;;23.45;57.49;101258.84;5080340;27;47931;-78
2022/05/20 09:10:38;;;;;;;;;7.67;7.67;;;;;23.58;57.49;101245.81;5077653;27;45432;-78
2022/05/20 09:13:19;;;;;;;;;12.33;12.33;;;;;23.43;58.22;101199.25;5076512;27;45383;-78
2022/05/20 09:15:59;;;;;;;;;14.00;12.00;;;;;23.26;57.08;101168.78;5078046;28;45429;-78
2022/05/20 09:18:39;;;;;;;;;12.00;11.00;;;;;23.54;56.54;101193.41;5079526;27;45423;-80
2022/05/20 09:21:07;;;;;;;;;12.67;12.00;;;;;23.86;55.80;101234.78;5073934;27;45284;-79
2022/05/20 09:23:48;;;;;;;;;12.33;11.67;;;;;23.52;55.94;101153.38;5058843;28;45410;-78
2022/05/20 09:26:16;;;;;;;;;13.67;12.00;;;;;24.00;55.99;101196.69;5040651;28;45391;-81
2022/05/20 09:28:50;;;;;;;;;13.67;13.00;;;;;24.10;57.31;101177.44;5033935;28;46951;-80
2022/05/20 09:31:25;;;;;;;;;13.67;11.33;;;;;24.17;56.82;101188.72;5069709;28;45494;-79
2022/05/20 09:34:34;;;;;;;;;14.67;10.67;;;;;23.75;56.44;101108.69;5039198;28;45814;-79
2022/05/20 09:37:18;;;;;;;;;11.00;11.00;;;;;24.26;56.56;101214.19;5037585;28;45557;-79
2022/05/20 09:39:48;;;;;;;;;14.00;13.00;;;;;24.26;56.13;101300.69;5037971;28;45572;-79
2022/05/20 09:42:20;;;;;;;;;14.67;12.33;;;;;24.24;55.55;101380.19;5056663;28;45374;-78
2022/05/20 09:45:16;;;;;;;;;11.33;10.67;;;;;23.32;55.47;101233.59;5055489;28;45393;-77
2022/05/20 09:47:51;;;;;;;;;22.33;19.33;;;;;24.13;56.42;101268.31;5056288;28;45611;-77
2022/05/20 09:50:34;;;;;;;;;22.67;21.33;;;;;23.54;58.03;101022.28;5056271;28;45584;-77
2022/05/20 09:53:24;;;;;;;;;24.67;21.67;;;;;23.56;59.64;101084.59;5056405;28;45532;-77
2022/05/20 09:55:50;;;;;;;;;19.33;16.33;;;;;23.04;59.31;101070.00;5055857;28;45349;-77
2022/05/20 09:58:28;;;;;;;;;18.67;17.67;;;;;23.63;58.48;101161.78;5039628;28;45548;-77
2022/05/20 10:01:05;;;;;;;;;17.67;14.33;;;;;23.94;58.26;101162.19;5036028;28;45490;-78
2022/05/20 10:04:02;;;;;;;;;18.00;15.67;;;;;24.15;57.83;101136.22;5043646;28;45417;-77
2022/05/20 10:06:43;;;;;;;;;83.00;80.25;;;;;23.58;57.75;101022.06;5030443;28;45455;-82
2022/05/20 10:09:32;;;;;;;;;52.75;43.25;;;;;23.78;57.11;101031.88;5047721;28;45433;-79
2022/05/20 10:12:13;;;;;;;;;28.00;27.67;;;;;23.86;56.82;101039.50;5049375;28;45708;-77
2022/05/20 10:15:13;;;;;;;;;31.33;28.00;;;;;24.52;56.88;101138.84;5018015;28;45429;-77
2022/05/20 10:18:05;;;;;;;;;27.33;27.33;;;;;23.80;57.08;101064.75;5028922;28;45588;-78
2022/05/20 10:20:44;;;;;;;;;28.33;23.33;;;;;24.02;57.63;101142.16;5032773;27;45573;-78
2022/05/20 10:23:36;;;;;;;;;22.67;21.00;;;;;23.89;58.10;101146.34;5077976;27;46673;-79
2022/05/20 10:26:43;;;;;;;;;29.67;26.33;;;;;23.31;58.12;101077.72;5078751;27;45431;-75
2022/05/20 10:34:58;;;;;;;;;24.00;23.33;;;;;23.97;60.14;101168.28;5068908;27;45890;-76
2022/05/20 10:37:34;;;;;;;;;24.33;19.33;;;;;24.08;59.12;101157.94;5079633;27;45334;-75
2022/05/20 10:40:12;;;;;;;;;20.67;20.67;;;;;24.20;58.87;101152.91;5078156;27;45512;-77
2022/05/20 10:42:38;;;;;;;;;21.00;21.00;;;;;24.34;57.99;101147.75;5079755;27;45493;-76
2022/05/20 10:48:39;;;;;;;;;23.00;20.33;;;;;24.53;58.30;101135.22;5079438;27;45505;-76
2022/05/20 10:51:27;;;;;;;;;29.33;25.00;;;;;24.68;57.91;101124.72;5079232;27;45474;-75
2022/05/20 10:54:21;;;;;;;;;27.67;22.67;;;;;24.76;57.25;101101.91;5079634;27;45564;-77
2022/05/20 10:57:17;;;;;;;;;26.67;22.33;;;;;24.91;56.90;101104.75;5059222;28;45604;-78
2022/05/20 10:59:54;;;;;;;;;34.67;30.67;;;;;24.80;56.57;101072.31;5078945;27;45579;-79
2022/05/20 11:02:57;;;;;;;;;29.33;26.67;;;;;25.08;56.74;101128.88;5078080;27;45748;-78
2022/05/20 11:05:58;;;;;;;;;23.67;23.00;;;;;25.22;56.67;101140.69;5078702;27;45501;-77
2022/05/20 11:08:42;;;;;;;;;23.67;23.67;;;;;25.11;55.93;101096.53;4997725;28;45812;-73
2022/05/20 11:11:29;;;;;;;;;26.67;23.67;;;;;25.53;55.30;101153.31;5057462;28;45489;-76
2022/05/20 11:14:34;;;;;;;;;27.67;22.67;;;;;25.00;55.41;101036.41;5083376;27;45439;-78
2022/05/20 11:17:38;;;;;;;;;25.67;22.33;;;;;25.95;55.42;101176.09;5077872;28;45427;-79
2022/05/20 11:20:30;;;;;;;;;24.00;21.00;;;;;26.14;54.76;101173.25;5057882;28;45401;-76
2022/05/20 11:23:09;;;;;;;;;20.00;19.33;;;;;25.55;54.25;101071.81;5058687;28;45172;-78
2022/05/20 11:26:03;;;;;;;;;20.67;20.67;;;;;26.18;54.72;101183.75;5059085;28;45456;-78
2022/05/20 11:28:54;;;;;;;;;20.33;19.00;;;;;25.70;54.25;101106.78;5059027;28;45499;-79
2022/05/20 11:31:52;;;;;;;;;19.33;15.67;;;;;26.29;53.94;101206.44;5092367;27;45458;-79
2022/05/20 11:34:38;;;;;;;;;18.00;17.00;;;;;26.31;54.50;101196.47;5059184;27;46038;-78
2022/05/20 11:37:24;;;;;;;;;22.00;22.00;;;;;26.35;54.10;101195.34;5108291;27;45413;-78
2022/05/20 11:40:08;;;;;;;;;22.67;20.00;;;;;26.46;54.43;101200.97;5088401;27;45513;-75
2022/05/20 11:43:11;;;;;;;;;26.00;23.33;;;;;26.62;54.09;101190.22;5075069;28;46959;-77
2022/05/20 11:45:51;;;;;;;;;21.33;19.00;;;;;26.78;54.29;101190.22;5076750;27;45870;-78
2022/05/20 11:48:30;;;;;;;;;17.67;16.33;;;;;26.89;53.92;101192.28;5077947;27;45228;-78
2022/05/20 11:51:39;;;;;;;;;16.33;16.33;;;;;26.52;53.78;101093.16;5079363;28;45436;-79
2022/05/20 11:54:18;;;;;;;;;20.33;18.00;;;;;26.51;53.26;101080.72;5037504;27;45567;-78
2022/05/20 11:56:58;;;;;;;;;14.67;14.33;;;;;27.16;52.94;101162.84;5081299;27;45311;-81
2022/05/20 12:00:05;;;;;;;;;19.00;17.33;;;;;27.16;51.78;101147.59;5081985;27;45280;-77
2022/05/20 12:02:45;;;;;;;;;16.33;14.67;;;;;27.04;51.58;101126.84;4992574;28;45742;-77
2022/05/20 12:05:15;;;;;;;;;19.00;15.00;;;;;26.67;50.97;101066.38;5067374;27;45515;-77
2022/05/20 12:07:42;;;;;;;;;14.00;12.33;;;;;26.57;51.07;101044.56;5077322;27;45511;-78
2022/05/20 12:10:43;;;;;;;;;11.25;10.50;;;;;27.19;50.13;101143.84;5064727;28;45446;-81
2022/05/20 12:13:24;;;;;;;;;16.00;13.67;;;;;26.27;49.48;100998.91;5076487;28;45439;-77
2022/05/20 12:16:13;;;;;;;;;15.25;15.00;;;;;27.05;49.37;101117.78;5078269;27;46125;-75
2022/05/20 12:24:39;;;;;;;;;15.00;15.00;;;;;26.72;47.70;101089.34;5043849;27;46484;-73
2022/05/20 12:27:23;;;;;;;;;13.67;13.33;;;;;27.03;46.86;101154.69;5067091;28;46809;-77
2022/05/20 12:29:58;;;;;;;;;15.33;13.00;;;;;26.95;46.52;101148.88;5075219;28;45866;-77
2022/05/20 12:32:27;;;;;;;;;12.00;10.00;;;;;26.52;46.67;101103.91;5074878;28;45433;-76
2022/05/20 12:35:04;;;;;;;;;17.00;13.00;;;;;26.84;46.70;101155.78;5077991;28;45579;-76
2022/05/20 12:37:42;;;;;;;;;14.33;12.67;;;;;26.77;46.96;101157.09;5076271;28;46421;-76
2022/05/20 12:40:40;;;;;;;;;16.00;12.33;;;;;26.40;47.71;101132.34;5073347;28;45395;-78
2022/05/20 12:43:10;;;;;;;;;13.67;13.67;;;;;26.62;47.84;101174.09;5072589;28;45500;-81
2022/05/20 12:45:54;;;;;;;;;20.67;15.00;;;;;26.42;48.25;101151.94;5073871;28;45463;-77
2022/05/20 12:48:30;;;;;;;;;13.00;12.33;;;;;25.67;48.52;101043.44;5075314;27;46496;-76
2022/05/20 12:51:07;;;;;;;;;11.67;11.67;;;;;26.47;48.55;101183.91;5056706;28;45532;-75
2022/05/20 12:53:35;;;;;;;;;9.67;9.67;;;;;26.08;48.44;101125.28;5070560;28;45778;-74
2022/05/20 12:56:01;;;;;;;;;8.67;8.67;;;;;25.69;49.07;101063.00;5056603;28;45430;-80
2022/05/20 12:58:32;;;;;;;;;10.67;10.67;;;;;26.44;49.42;101192.16;5068991;27;46359;-80
2022/05/20 13:01:02;;;;;;;;;12.00;11.33;;;;;26.44;48.91;101194.81;5038139;28;46053;-75
2022/05/20 13:03:37;;;;;;;;;11.67;10.67;;;;;25.89;49.36;101125.44;5069337;28;45536;-77
2022/05/20 13:06:22;;;;;;;;;12.33;11.00;;;;;26.38;49.82;101212.13;5056576;28;45789;-77
2022/05/20 13:09:06;;;;;;;;;14.00;12.00;;;;;25.36;49.89;101066.59;5072230;28;46379;-78
2022/05/20 13:11:46;;;;;;;;;12.00;12.00;;;;;26.28;50.08;101234.25;5072997;28;45441;-78
2022/05/20 13:14:14;;;;;;;;;14.00;12.00;;;;;25.64;51.09;101152.75;5072464;27;45354;-76
2022/05/20 13:16:44;;;;;;;;;13.67;11.33;;;;;25.65;50.53;101182.19;5060476;27;45533;-78
2022/05/20 13:19:14;;;;;;;;;11.33;8.00;;;;;25.58;50.97;101184.31;5074055;28;45522;-80
2022/05/20 13:21:47;;;;;;;;;12.00;10.67;;;;;25.50;52.12;101177.63;5064840;28;46627;-79
2022/05/20 13:24:16;;;;;;;;;11.67;10.00;;;;;25.51;51.34;101204.38;5074770;27;45555;-78
2022/05/20 13:26:46;;;;;;;;;10.00;10.00;;;;;25.56;51.19;101225.59;5073196;27;45476;-77
2022/05/20 13:29:21;;;;;;;;;8.00;8.00;;;;;25.83;51.41;101287.63;5073663;27;46243;-77
2022/05/20 13:31:47;;;;;;;;;7.50;7.50;;;;;25.53;51.52;101253.44;5072459;27;46143;-76
2022/05/20 13:34:14;;;;;;;;;8.00;8.00;;;;;25.75;51.53;101305.97;5072105;27;45829;-75
2022/05/20 13:36:46;;;;;;;;;6.50;5.25;;;;;24.76;51.88;101150.13;5069493;28;45571;-78
2022/05/20 13:39:23;;;;;;;;;6.00;5.75;;;;;25.09;51.63;101216.34;5073297;28;46326;-81
2022/05/20 13:41:50;;;;;;;;;7.00;7.00;;;;;25.66;51.57;101326.06;5072694;28;45459;-75
2022/05/20 13:44:16;;;;;;;;;7.25;6.25;;;;;25.37;51.06;101282.88;5076971;27;45421;-80
2022/05/20 13:49:35;;;;;;;;;6.00;6.00;;;;;24.88;51.31;101230.84;5064872;28;46890;-77
2022/05/20 13:52:04;;;;;;;;;5.00;5.00;;;;;25.04;51.06;101260.41;5060023;28;45358;-76
2022/05/20 13:54:50;;;;;;;;;5.75;5.75;;;;;25.56;51.51;101331.06;5073648;28;45548;-75
2022/05/20 13:57:39;;;;;;;;;4.00;4.00;;;;;25.53;51.29;101341.06;5074316;28;45551;-76
2022/05/20 14:00:27;;;;;;;;;6.00;6.00;;;;;25.41;51.21;101296.09;5076678;27;45517;-74
2022/05/20 14:03:24;;;;;;;;;7.75;7.75;;;;;25.78;51.20;101370.19;5073656;28;45475;-76
2022/05/20 14:06:03;;;;;;;;;9.00;6.00;;;;;25.24;50.20;101287.09;5063613;27;45591;-86
2022/05/20 14:08:32;;;;;;;;;7.67;7.67;;;;;25.81;49.75;101389.66;5077634;28;45615;-86
2022/05/20 14:11:03;;;;;;;;;8.00;7.33;;;;;24.66;49.65;101207.78;5080056;28;47694;-84
2022/05/20 14:13:37;;;;;;;;;7.67;7.00;;;;;25.76;48.61;101409.63;5083347;27;45392;-83
2022/05/20 14:16:25;;;;;;;;;8.00;7.00;;;;;25.68;48.61;101399.31;5102378;27;44855;-82
2022/05/20 14:19:01;;;;;;;;;5.33;5.33;;;;;25.48;48.29;101389.56;5087448;27;45274;-84
2022/05/20 14:21:38;;;;;;;;;5.00;5.00;;;;;25.51;47.97;101393.94;5081424;28;45677;-84
2022/05/20 14:24:04;;;;;;;;;5.00;5.00;;;;;25.61;48.67;101416.66;5081042;27;45523;-82
2022/05/20 14:26:31;;;;;;;;;5.75;5.75;;;;;25.56;48.53;101418.72;5079534;27;45489;-84
2022/05/20 14:29:07;;;;;;;;;7.25;6.50;;;;;25.32;48.64;101405.56;5080517;27;45817;-82
2022/05/20 14:31:43;;;;;;;;;5.25;5.25;;;;;24.89;48.24;101337.94;5082205;27;46602;-83
2022/05/20 14:34:18;;;;;;;;;6.25;5.00;;;;;25.09;47.96;101381.66;5080639;27;45920;-76
2022/05/20 14:36:44;;;;;;;;;6.00;6.00;;;;;25.01;48.23;101384.72;5080243;27;45587;-78
2022/05/20 14:39:19;;;;;;;;;5.50;5.50;;;;;25.38;47.89;101449.97;5080050;27;45515;-77
2022/05/20 14:42:00;;;;;;;;;5.50;5.00;;;;;25.36;48.13;101450.03;5079428;27;45646;-79
2022/05/20 14:44:26;;;;;;;;;6.00;6.00;;;;;24.86;46.97;101359.50;5084724;27;45530;-80
2022/05/20 14:47:16;;;;;;;;;6.33;5.33;;;;;25.18;47.29;101418.78;5079635;27;45767;-77
2022/05/20 14:49:57;;;;;;;;;6.33;6.33;;;;;25.37;46.87;101459.84;5059736;28;45434;-77
2022/05/20 14:52:26;;;;;;;;;6.00;5.75;;;;;24.93;47.35;101398.47;5059264;28;45975;-77
2022/05/20 14:54:52;;;;;;;;;9.00;7.00;;;;;24.83;46.89;101372.19;5076510;28;45692;-78
2022/05/20 14:57:31;;;;;;;;;8.00;8.00;;;;;25.42;47.05;101488.25;5078677;27;46055;-77
2022/05/20 15:00:06;;;;;;;;;9.33;9.33;;;;;25.41;46.39;101484.66;5079062;27;45300;-78
2022/05/20 15:02:32;;;;;;;;;11.00;8.67;;;;;25.32;46.57;101475.28;5078189;27;45506;-75
2022/05/20 15:04:58;;;;;;;;;12.67;12.00;;;;;25.30;46.08;101466.44;5077884;27;45897;-76
2022/05/20 15:07:23;;;;;;;;;16.00;13.67;;;;;24.76;45.91;101385.00;5075111;27;45464;-75
2022/05/20 15:09:52;;;;;;;;;16.00;15.33;;;;;24.57;46.20;101378.78;5080360;27;45564;-77
2022/05/20 15:12:18;;;;;;;;;16.67;16.67;;;;;24.88;46.04;101426.44;5080087;27;46204;-75
2022/05/20 15:14:47;;;;;;;;;20.00;16.33;;;;;25.27;46.05;101509.50;5065649;28;45301;-78
2022/05/20 15:17:14;;;;;;;;;16.33;16.33;;;;;25.03;46.46;101484.66;5079999;28;45929;-78
2022/05/20 15:19:40;;;;;;;;;21.33;19.67;;;;;24.87;46.34;101471.13;5080513;27;45313;-76
2022/05/20 15:22:06;;;;;;;;;22.33;18.00;;;;;24.59;46.05;101439.34;5063347;27;45484;-75
2022/05/20 15:24:33;;;;;;;;;22.33;21.00;;;;;24.27;46.23;101414.84;5054835;28;45448;-77
2022/05/20 15:27:00;;;;;;;;;19.33;18.00;;;;;24.95;46.11;101529.69;5058501;28;45375;-78
2022/05/20 15:29:26;;;;;;;;;19.00;19.00;;;;;24.85;45.73;101537.28;5059454;28;45517;-78
2022/05/20 15:34:52;;;;;;;;;20.00;18.67;;;;;24.73;46.08;101544.06;5057825;28;45576;-78
2022/05/20 15:37:28;;;;;;;;;21.67;21.00;;;;;24.62;46.10;101554.38;5059241;28;45490;-78
2022/05/20 15:40:10;;;;;;;;;18.67;18.00;;;;;24.53;45.94;101555.63;5041133;28;45386;-78
2022/05/20 15:42:36;;;;;;;;;16.00;15.67;;;;;24.00;45.67;101502.56;5058319;28;46290;-79
2022/05/20 15:45:01;;;;;;;;;17.00;16.67;;;;;23.89;45.82;101502.13;5059478;28;45430;-79
2022/05/20 15:47:27;;;;;;;;;14.33;13.67;;;;;24.36;45.88;101590.28;5058923;28;45366;-79
2022/05/20 15:49:56;;;;;;;;;13.00;13.00;;;;;24.22;45.46;101576.59;5058533;28;45425;-79
2022/05/20 15:52:43;;;;;;;;;15.67;12.00;;;;;24.02;45.38;101521.25;5057494;28;46625;-78
2022/05/20 15:55:21;;;;;;;;;17.00;15.00;;;;;24.48;45.33;101589.78;5044817;28;45405;-78
2022/05/20 15:57:46;;;;;;;;;13.33;13.33;;;;;24.03;45.27;101514.94;5058836;28;45391;-76
2022/05/20 16:00:14;;;;;;;;;12.67;12.33;;;;;24.39;44.51;101571.41;5057856;28;45524;-77
2022/05/20 16:02:42;;;;;;;;;28.33;24.33;;;;;23.88;44.68;101501.28;5051044;28;45524;-77
2022/05/20 16:05:20;;;;;;;;;33.00;28.67;;;;;24.44;44.42;101588.16;5055451;28;45673;-78
2022/05/20 16:07:56;;;;;;;;;63.75;50.75;;;;;24.23;44.43;101570.34;5056666;28;45335;-75
2022/05/20 16:10:25;;;;;;;;;171.00;154.67;;;;;24.57;45.10;101619.81;5054429;28;45357;-77
2022/05/20 16:12:50;;;;;;;;;77.25;65.50;;;;;24.29;45.13;101575.41;5056763;28;45505;-79
2022/05/20 16:15:16;;;;;;;;;319.50;284.75;;;;;24.68;44.33;101631.81;5055752;28;45517;-78
2022/05/20 16:17:42;;;;;;;;;137.33;128.67;;;;;23.90;43.73;101507.44;5056630;28;45788;-78
2022/05/20 16:20:08;;;;;;;;;161.25;146.50;;;;;24.39;43.99;101589.28;5039538;28;45323;-76
2022/05/20 16:22:36;;;;;;;;;71.00;56.50;;;;;24.28;43.31;101568.31;5069618;28;47051;-77
2022/05/20 16:25:03;;;;;;;;;49.33;39.67;;;;;24.30;43.75;101580.72;5075223;27;45428;-74
2022/05/20 16:27:38;;;;;;;;;43.33;36.00;;;;;24.50;44.11;101606.66;5075205;27;45540;-77
2022/05/20 16:30:04;;;;;;;;;24.33;21.33;;;;;24.18;43.02;101543.75;5076483;27;45308;-77
2022/05/20 16:32:30;;;;;;;;;16.00;14.33;;;;;24.39;42.59;101567.84;5074039;27;46424;-73
2022/05/20 16:34:56;;;;;;;;;14.33;10.00;;;;;24.84;42.16;101656.09;5075995;28;45279;-77
2022/05/20 16:37:21;;;;;;;;;10.00;8.33;;;;;24.82;42.12;101658.00;5074401;27;45966;-74
2022/05/20 16:39:47;;;;;;;;;8.33;8.33;;;;;24.50;41.93;101593.28;5065735;28;45669;-76
2022/05/20 16:42:14;;;;;;;;;8.33;6.00;;;;;24.60;41.62;101628.56;5075501;27;46191;-75
2022/05/20 16:44:39;;;;;;;;;14.00;11.00;;;;;24.83;43.23;101659.72;5076023;28;45475;-74
2022/05/20 16:47:05;;;;;;;;;9.67;9.00;;;;;24.82;41.94;101663.38;5074944;27;45491;-73
2022/05/20 16:49:34;;;;;;;;;8.67;8.00;;;;;24.08;42.05;101545.06;5074912;27;45581;-74
2022/05/20 16:52:03;;;;;;;;;9.67;8.67;;;;;24.80;41.55;101667.91;5075316;28;47081;-75
2022/05/20 16:54:34;;;;;;;;;10.00;8.00;;;;;24.80;42.26;101675.09;5079775;27;45372;-74
2022/05/20 17:02:31;;;;;;;;;6.33;6.00;;;;;24.69;41.73;101671.03;5080325;28;45239;-74
2022/05/20 17:04:59;;;;;;;;;4.33;3.33;;;;;23.97;41.25;101550.00;5079332;27;45302;-75
2022/05/20 17:07:26;;;;;;;;;7.00;5.00;;;;;24.19;41.71;101596.34;5076802;28;45238;-77
2022/05/20 17:09:52;;;;;;;;;5.00;4.00;;;;;24.01;42.10;101579.22;5094019;27;46034;-76
2022/05/20 17:12:18;;;;;;;;;3.33;3.33;;;;;24.56;41.07;101661.78;5077746;28;46314;-75
2022/05/20 17:14:45;;;;;;;;;5.00;5.00;;;;;24.66;41.76;101672.97;5076207;28;45419;-76
2022/05/20 17:17:11;;;;;;;;;6.67;4.67;;;;;24.24;41.97;101620.25;5077680;28;45381;-76
2022/05/20 17:19:37;;;;;;;;;9.00;4.00;;;;;24.63;42.00;101683.81;5076558;28;45460;-75
